Time;durP1;ratioP1;P1;durP2;ratioP2;P2;SDS_P1;SDS_P2;PMS_P1;PMS_P2;Temp;Humidity;BMP_temperature;BMP_pressure;BME280_temperature;BME280_humidity;BME280_pressure;Samples;Min_cycle;Max_cycle;Signal;HPM_P1;HPM_P2
2021/05/17 00:00:09;;;;;;;1.40;1.30;;;;;;;;;;4937630;29;20420;-76
2021/05/17 00:02:35;;;;;;;1.13;0.50;;;;;;;;;;4937779;29;20440;-76
2021/05/17 00:05:07;;;;;;;1.80;0.67;;;;;;;;;;4936150;29;20436;-76
2021/05/17 00:07:35;;;;;;;0.67;0.33;;;;;;;;;;4935936;29;20444;-77
2021/05/17 00:10:01;;;;;;;1.03;0.37;;;;;;;;;;4936140;28;20494;-76
2021/05/17 00:15:31;;;;;;;0.40;0.30;;;;;;;;;;4937248;29;20472;-76
2021/05/17 00:17:57;;;;;;;0.70;0.40;;;;;;;;;;4937286;29;20485;-76
2021/05/17 00:20:25;;;;;;;0.50;0.40;;;;;;;;;;4937144;29;20422;-76
2021/05/17 00:22:51;;;;;;;0.70;0.63;;;;;;;;;;4935717;29;20442;-76
2021/05/17 00:31:06;;;;;;;1.07;0.67;;;;;;;;;;4937164;29;20452;-77
2021/05/17 00:33:32;;;;;;;1.30;0.40;;;;;;;;;;4936030;29;20456;-76
2021/05/17 00:35:58;;;;;;;0.60;0.40;;;;;;;;;;4936689;29;20791;-75
2021/05/17 00:38:24;;;;;;;0.60;0.60;;;;;;;;;;4935884;29;20428;-77
2021/05/17 00:40:51;;;;;;;2.27;0.47;;;;;;;;;;4936691;29;20441;-76
2021/05/17 00:43:19;;;;;;;1.03;0.47;;;;;;;;;;4936508;29;20419;-77
2021/05/17 00:45:45;;;;;;;1.00;0.50;;;;;;;;;;4936810;29;20789;-76
2021/05/17 00:48:12;;;;;;;0.50;0.43;;;;;;;;;;4936585;29;20833;-76
2021/05/17 00:50:38;;;;;;;1.07;0.50;;;;;;;;;;4936530;29;20430;-75
2021/05/17 00:53:05;;;;;;;0.50;0.40;;;;;;;;;;4936406;29;20887;-75
2021/05/17 00:55:31;;;;;;;0.53;0.37;;;;;;;;;;4936078;29;20492;-75
2021/05/17 01:01:01;;;;;;;1.33;0.83;;;;;;;;;;4935359;29;20778;-77
2021/05/17 01:03:27;;;;;;;0.67;0.50;;;;;;;;;;4936234;29;20422;-76
2021/05/17 01:05:53;;;;;;;0.63;0.40;;;;;;;;;;4936192;29;20436;-77
2021/05/17 01:08:26;;;;;;;0.73;0.53;;;;;;;;;;4936031;29;20428;-78
2021/05/17 01:10:56;;;;;;;0.60;0.40;;;;;;;;;;4935737;29;20423;-75
2021/05/17 01:13:22;;;;;;;2.33;0.60;;;;;;;;;;4935983;29;20939;-77
2021/05/17 01:15:48;;;;;;;0.50;0.50;;;;;;;;;;4935891;29;20470;-76
2021/05/17 01:18:18;;;;;;;2.93;0.70;;;;;;;;;;4935967;29;20486;-76
2021/05/17 01:20:47;;;;;;;0.83;0.60;;;;;;;;;;4936272;29;20432;-76
2021/05/17 01:23:59;;;;;;;0.50;0.30;;;;;;;;;;4935927;29;20417;-75
2021/05/17 01:26:01;;;;;;;0.57;0.40;;;;;;;;;;4928554;29;20541;-77
2021/05/17 01:28:29;;;;;;;1.03;0.70;;;;;;;;;;4935995;29;20846;-75
2021/05/17 01:31:00;;;;;;;2.17;0.70;;;;;;;;;;4934495;28;20440;-77
2021/05/17 01:33:28;;;;;;;0.80;0.60;;;;;;;;;;4936075;29;20450;-76
2021/05/17 01:35:58;;;;;;;0.70;0.50;;;;;;;;;;4935620;29;20468;-76
2021/05/17 01:38:25;;;;;;;1.47;1.00;;;;;;;;;;4935642;29;20433;-77
2021/05/17 01:40:52;;;;;;;1.13;0.50;;;;;;;;;;4935758;29;20440;-77
2021/05/17 01:46:23;;;;;;;0.40;0.30;;;;;;;;;;4935677;29;20521;-77
2021/05/17 01:48:49;;;;;;;0.80;0.50;;;;;;;;;;4935561;29;20417;-75
2021/05/17 01:51:19;;;;;;;1.23;0.40;;;;;;;;;;4935117;29;20783;-75
2021/05/17 01:53:46;;;;;;;2.40;0.67;;;;;;;;;;4935089;29;20409;-75
2021/05/17 01:56:13;;;;;;;1.03;0.53;;;;;;;;;;4935277;29;20422;-74
2021/05/17 02:01:42;;;;;;;0.83;0.70;;;;;;;;;;4935729;29;20979;-76
2021/05/17 02:04:08;;;;;;;2.73;0.60;;;;;;;;;;4935684;29;20428;-76
2021/05/17 02:06:34;;;;;;;0.70;0.50;;;;;;;;;;4935859;29;20421;-76
2021/05/17 02:09:00;;;;;;;3.40;0.47;;;;;;;;;;4935674;29;20461;-76
2021/05/17 02:17:15;;;;;;;1.30;0.50;;;;;;;;;;4935640;29;20491;-76
2021/05/17 02:19:41;;;;;;;0.40;0.40;;;;;;;;;;4936199;29;20443;-76
2021/05/17 02:22:07;;;;;;;0.50;0.40;;;;;;;;;;4935895;29;20413;-76
2021/05/17 02:24:33;;;;;;;0.40;0.30;;;;;;;;;;4935556;29;20920;-76
2021/05/17 02:26:59;;;;;;;1.37;0.30;;;;;;;;;;4935242;29;20473;-76
2021/05/17 02:29:26;;;;;;;1.03;0.40;;;;;;;;;;4935315;29;20421;-76
2021/05/17 02:31:52;;;;;;;1.70;0.47;;;;;;;;;;4933807;29;20827;-76
2021/05/17 02:34:18;;;;;;;1.90;0.50;;;;;;;;;;4934893;29;20545;-76
2021/05/17 02:36:44;;;;;;;0.40;0.40;;;;;;;;;;4935052;29;20476;-78
2021/05/17 02:39:10;;;;;;;0.50;0.40;;;;;;;;;;4935405;29;20512;-74
2021/05/17 02:41:37;;;;;;;1.00;0.40;;;;;;;;;;4934616;29;20422;-75
2021/05/17 02:47:07;;;;;;;0.60;0.40;;;;;;;;;;4935285;29;20409;-76
2021/05/17 02:49:35;;;;;;;0.40;0.30;;;;;;;;;;4935017;29;20966;-77
2021/05/17 02:52:01;;;;;;;0.50;0.30;;;;;;;;;;4935372;29;20421;-77
2021/05/17 02:54:30;;;;;;;0.50;0.40;;;;;;;;;;4934969;29;20491;-77
2021/05/17 02:56:59;;;;;;;0.60;0.50;;;;;;;;;;4935013;29;20511;-77
2021/05/17 02:59:34;;;;;;;0.40;0.30;;;;;;;;;;4935377;29;20757;-76
2021/05/17 03:02:01;;;;;;;2.03;0.50;;;;;;;;;;4935188;29;20421;-76
2021/05/17 03:04:28;;;;;;;0.60;0.60;;;;;;;;;;4935052;29;20511;-75
2021/05/17 03:07:23;;;;;;;1.43;0.50;;;;;;;;;;4934859;29;20504;-74
2021/05/17 03:09:50;;;;;;;1.13;0.60;;;;;;;;;;4926208;29;20774;-77
2021/05/17 03:12:18;;;;;;;3.00;0.80;;;;;;;;;;4934893;29;20504;-76
2021/05/17 03:14:46;;;;;;;0.83;0.40;;;;;;;;;;4933532;29;20992;-76
2021/05/17 03:17:12;;;;;;;4.43;0.43;;;;;;;;;;4934647;29;20420;-76
2021/05/17 03:19:38;;;;;;;0.40;0.37;;;;;;;;;;4934570;29;20428;-76
2021/05/17 03:22:06;;;;;;;0.90;0.37;;;;;;;;;;4935144;29;20836;-77
2021/05/17 03:24:34;;;;;;;0.60;0.30;;;;;;;;;;4936746;29;20459;-77
2021/05/17 03:33:01;;;;;;;2.80;0.47;;;;;;;;;;4938109;29;20590;-76
2021/05/17 03:35:27;;;;;;;0.50;0.40;;;;;;;;;;4937953;29;20475;-76
2021/05/17 03:37:54;;;;;;;2.60;0.70;;;;;;;;;;4938153;29;20445;-76
2021/05/17 03:40:20;;;;;;;1.37;0.30;;;;;;;;;;4937789;29;20549;-77
2021/05/17 03:42:46;;;;;;;1.80;0.30;;;;;;;;;;4937890;29;20449;-76
2021/05/17 03:45:13;;;;;;;1.57;0.50;;;;;;;;;;4937845;29;20452;-75
2021/05/17 03:47:39;;;;;;;2.37;0.43;;;;;;;;;;4938238;29;20948;-76
2021/05/17 03:50:06;;;;;;;6.93;0.60;;;;;;;;;;4937705;29;20421;-75
2021/05/17 03:52:33;;;;;;;0.37;0.30;;;;;;;;;;4937903;29;20846;-76
2021/05/17 03:54:59;;;;;;;1.23;0.40;;;;;;;;;;4937063;29;20480;-77
2021/05/17 03:57:25;;;;;;;0.40;0.30;;;;;;;;;;4937581;29;21006;-75
2021/05/17 03:59:51;;;;;;;0.70;0.40;;;;;;;;;;4936979;29;20426;-76
2021/05/17 04:02:22;;;;;;;0.53;0.30;;;;;;;;;;4935872;29;20439;-77
2021/05/17 04:05:01;;;;;;;1.23;0.40;;;;;;;;;;4936935;29;20412;-76
2021/05/17 04:15:22;;;;;;;2.00;0.57;;;;;;;;;;4936910;29;20540;-76
2021/05/17 04:17:48;;;;;;;1.40;0.73;;;;;;;;;;4935893;29;20443;-76
2021/05/17 04:20:15;;;;;;;2.13;0.50;;;;;;;;;;4936687;29;20426;-76
2021/05/17 04:22:41;;;;;;;0.60;0.50;;;;;;;;;;4937078;29;20492;-76
2021/05/17 04:25:08;;;;;;;2.20;0.80;;;;;;;;;;4935506;29;20912;-77
2021/05/17 04:27:34;;;;;;;0.70;0.50;;;;;;;;;;4936777;29;20429;-77
2021/05/17 04:33:04;;;;;;;0.67;0.67;;;;;;;;;;4936375;29;20490;-76
2021/05/17 04:35:30;;;;;;;1.07;0.50;;;;;;;;;;4936237;29;20474;-76
2021/05/17 04:37:56;;;;;;;0.60;0.50;;;;;;;;;;4936217;29;20421;-76
2021/05/17 04:40:22;;;;;;;2.00;0.63;;;;;;;;;;4936341;29;20428;-77
2021/05/17 04:42:48;;;;;;;0.90;0.50;;;;;;;;;;4936183;29;20417;-75
2021/05/17 04:45:14;;;;;;;3.03;0.77;;;;;;;;;;4936222;29;20433;-76
2021/05/17 04:47:40;;;;;;;3.70;0.80;;;;;;;;;;4935731;29;20412;-76
2021/05/17 04:50:07;;;;;;;0.80;0.50;;;;;;;;;;4936035;29;20422;-76
2021/05/17 04:52:33;;;;;;;2.70;0.63;;;;;;;;;;4936123;29;20755;-78
2021/05/17 04:54:59;;;;;;;1.23;0.60;;;;;;;;;;4935641;29;20488;-76
2021/05/17 04:57:25;;;;;;;0.93;0.63;;;;;;;;;;4934462;29;20490;-76
2021/05/17 05:02:54;;;;;;;0.50;0.40;;;;;;;;;;4936014;29;20444;-76
2021/05/17 05:05:20;;;;;;;0.73;0.50;;;;;;;;;;4935588;29;20533;-75
2021/05/17 05:07:47;;;;;;;2.57;0.60;;;;;;;;;;4935721;29;20443;-76
2021/05/17 05:10:13;;;;;;;0.77;0.50;;;;;;;;;;4935694;29;20449;-77
2021/05/17 05:12:39;;;;;;;1.10;0.47;;;;;;;;;;4935933;29;20428;-76
2021/05/17 05:18:08;;;;;;;0.63;0.40;;;;;;;;;;4935797;29;20450;-75
2021/05/17 05:20:34;;;;;;;0.87;0.50;;;;;;;;;;4935815;29;20412;-77
2021/05/17 05:23:02;;;;;;;0.63;0.47;;;;;;;;;;4934711;29;20439;-76
2021/05/17 05:28:23;;;;;;;1.10;0.30;;;;;;;;;;4916993;29;20443;-77
2021/05/17 05:31:01;;;;;;;0.90;0.30;;;;;;;;;;4935898;29;20428;-77
2021/05/17 05:33:27;;;;;;;1.33;0.50;;;;;;;;;;4935610;29;20420;-77
2021/05/17 05:35:53;;;;;;;1.40;0.33;;;;;;;;;;4936076;29;20502;-76
2021/05/17 05:38:20;;;;;;;1.03;0.40;;;;;;;;;;4935804;29;20452;-78
2021/05/17 05:40:46;;;;;;;1.43;0.30;;;;;;;;;;4935436;29;20432;-78
2021/05/17 05:43:12;;;;;;;0.83;0.40;;;;;;;;;;4935698;29;20474;-76
2021/05/17 05:45:45;;;;;;;0.60;0.30;;;;;;;;;;4935669;29;20443;-76
2021/05/17 05:48:11;;;;;;;0.90;0.33;;;;;;;;;;4935127;29;20416;-75
2021/05/17 05:50:38;;;;;;;0.50;0.30;;;;;;;;;;4935186;29;20429;-76
2021/05/17 05:53:04;;;;;;;1.23;0.30;;;;;;;;;;4935430;29;20439;-76
2021/05/17 05:55:30;;;;;;;0.40;0.23;;;;;;;;;;4935047;29;20894;-77
2021/05/17 05:57:57;;;;;;;0.70;0.40;;;;;;;;;;4935471;29;20464;-76
2021/05/17 06:03:26;;;;;;;0.40;0.33;;;;;;;;;;4934385;29;20470;-77
2021/05/17 06:05:52;;;;;;;0.80;0.50;;;;;;;;;;4934147;29;20778;-77
2021/05/17 06:08:18;;;;;;;1.70;0.23;;;;;;;;;;4934140;29;20413;-77
2021/05/17 06:10:44;;;;;;;1.90;0.77;;;;;;;;;;4934670;29;20452;-76
2021/05/17 06:13:10;;;;;;;0.70;0.37;;;;;;;;;;4934807;29;20412;-75
2021/05/17 06:18:40;;;;;;;0.73;0.40;;;;;;;;;;4935160;29;20989;-74
2021/05/17 06:21:06;;;;;;;0.70;0.43;;;;;;;;;;4935409;29;20791;-75
2021/05/17 06:23:33;;;;;;;0.60;0.47;;;;;;;;;;4934801;29;20459;-77
2021/05/17 06:26:02;;;;;;;0.80;0.50;;;;;;;;;;4935040;29;20484;-77
2021/05/17 06:34:38;;;;;;;1.73;0.47;;;;;;;;;;4934923;29;20824;-79
2021/05/17 06:37:04;;;;;;;2.57;0.50;;;;;;;;;;4934892;29;20425;-78
2021/05/17 06:39:30;;;;;;;1.23;0.50;;;;;;;;;;4934957;29;20925;-73
2021/05/17 06:41:56;;;;;;;1.80;0.37;;;;;;;;;;4934968;29;20428;-76
2021/05/17 06:44:22;;;;;;;1.80;0.40;;;;;;;;;;4934738;29;20909;-77
2021/05/17 06:46:48;;;;;;;0.67;0.60;;;;;;;;;;4934666;29;20455;-76
2021/05/17 06:49:14;;;;;;;1.13;0.50;;;;;;;;;;4933331;29;20444;-76
2021/05/17 06:51:41;;;;;;;0.97;0.67;;;;;;;;;;4934319;29;20491;-75
2021/05/17 06:54:09;;;;;;;1.33;0.50;;;;;;;;;;4933672;29;20501;-77
2021/05/17 06:56:42;;;;;;;1.10;0.60;;;;;;;;;;4934488;29;20592;-76
2021/05/17 06:59:13;;;;;;;2.00;0.70;;;;;;;;;;4936274;29;20513;-77
2021/05/17 07:01:39;;;;;;;1.20;1.00;;;;;;;;;;4938363;29;20475;-75
2021/05/17 07:04:07;;;;;;;0.70;0.60;;;;;;;;;;4938346;29;20446;-76
2021/05/17 07:06:34;;;;;;;1.77;0.87;;;;;;;;;;4938253;29;20454;-77
2021/05/17 07:11:56;;;;;;;1.37;0.50;;;;;;;;;;4938444;29;20509;-76
2021/05/17 07:14:22;;;;;;;1.50;0.40;;;;;;;;;;4938251;29;20482;-76
2021/05/17 07:16:48;;;;;;;0.70;0.50;;;;;;;;;;4938379;29;20504;-76
2021/05/17 07:19:14;;;;;;;0.93;0.67;;;;;;;;;;4938620;29;20435;-77
2021/05/17 07:24:27;;;;;;;0.40;0.40;;;;;;;;;;4938450;29;20480;-75
2021/05/17 07:26:53;;;;;;;0.60;0.60;;;;;;;;;;4938148;29;20433;-75
2021/05/17 07:29:20;;;;;;;0.93;0.57;;;;;;;;;;4937859;29;20919;-75
2021/05/17 07:31:47;;;;;;;0.47;0.30;;;;;;;;;;4938092;29;20422;-76
2021/05/17 07:34:13;;;;;;;1.33;0.40;;;;;;;;;;4936393;29;20467;-77
2021/05/17 07:36:39;;;;;;;0.60;0.60;;;;;;;;;;4938073;29;20431;-74
2021/05/17 07:39:05;;;;;;;3.93;0.70;;;;;;;;;;4937551;29;20412;-73
2021/05/17 07:41:31;;;;;;;2.87;0.53;;;;;;;;;;4937742;29;20547;-72
2021/05/17 07:43:57;;;;;;;0.73;0.53;;;;;;;;;;4937908;29;20421;-75
2021/05/17 07:49:41;;;;;;;0.83;0.53;;;;;;;;;;4936793;29;20439;-77
2021/05/17 07:52:07;;;;;;;0.30;0.30;;;;;;;;;;4935721;28;20456;-75
2021/05/17 07:54:34;;;;;;;3.40;0.53;;;;;;;;;;4935025;29;20599;-75
2021/05/17 07:57:00;;;;;;;0.50;0.40;;;;;;;;;;4932729;29;20420;-75
2021/05/17 07:59:30;;;;;;;2.00;0.60;;;;;;;;;;4935198;29;20487;-75
2021/05/17 08:01:56;;;;;;;1.27;0.60;;;;;;;;;;4935653;29;20478;-75
2021/05/17 08:04:23;;;;;;;0.87;0.60;;;;;;;;;;4935875;29;20428;-75
2021/05/17 08:06:49;;;;;;;3.07;1.03;;;;;;;;;;4936127;29;20803;-76
2021/05/17 08:09:15;;;;;;;0.70;0.60;;;;;;;;;;4935010;29;20472;-75
2021/05/17 08:11:42;;;;;;;0.60;0.40;;;;;;;;;;4934302;29;20420;-76
2021/05/17 08:14:08;;;;;;;0.37;0.23;;;;;;;;;;4935458;29;20463;-75
2021/05/17 08:19:38;;;;;;;1.00;0.50;;;;;;;;;;4935863;29;20889;-76
2021/05/17 08:22:04;;;;;;;0.70;0.30;;;;;;;;;;4935570;29;20613;-77
2021/05/17 08:24:31;;;;;;;0.73;0.30;;;;;;;;;;4934271;29;20492;-77
2021/05/17 08:26:57;;;;;;;0.70;0.40;;;;;;;;;;4935769;29;20427;-76
2021/05/17 08:29:24;;;;;;;1.13;0.50;;;;;;;;;;4935572;29;20507;-75
2021/05/17 08:34:53;;;;;;;0.30;0.30;;;;;;;;;;4935236;29;20965;-77
2021/05/17 08:37:19;;;;;;;0.80;0.20;;;;;;;;;;4935707;29;21037;-77
2021/05/17 08:39:45;;;;;;;0.70;0.50;;;;;;;;;;4935528;29;20428;-76
2021/05/17 08:42:12;;;;;;;0.67;0.40;;;;;;;;;;4935341;29;20939;-75
2021/05/17 08:44:38;;;;;;;0.60;0.30;;;;;;;;;;4935420;29;20431;-76
2021/05/17 08:50:08;;;;;;;3.83;0.43;;;;;;;;;;4935140;29;20435;-76
2021/05/17 08:52:34;;;;;;;0.80;0.37;;;;;;;;;;4933802;29;20939;-74
2021/05/17 08:55:00;;;;;;;0.83;0.30;;;;;;;;;;4934550;29;20559;-75
2021/05/17 08:57:26;;;;;;;0.80;0.50;;;;;;;;;;4935103;29;20507;-75
2021/05/17 08:59:52;;;;;;;1.30;0.57;;;;;;;;;;4933525;29;20923;-75
2021/05/17 09:05:26;;;;;;;0.60;0.50;;;;;;;;;;4934453;29;20435;-75
2021/05/17 09:07:54;;;;;;;0.70;0.43;;;;;;;;;;4933260;29;20417;-75
2021/05/17 09:10:30;;;;;;;1.57;0.70;;;;;;;;;;4934722;29;20416;-76
2021/05/17 09:13:08;;;;;;;2.40;0.60;;;;;;;;;;4934787;29;20424;-76
2021/05/17 09:15:34;;;;;;;0.60;0.43;;;;;;;;;;4933242;29;20966;-76
2021/05/17 09:18:01;;;;;;;0.90;0.20;;;;;;;;;;4933808;29;20492;-76
2021/05/17 09:20:38;;;;;;;0.50;0.40;;;;;;;;;;4933768;29;20431;-75
2021/05/17 09:23:10;;;;;;;1.23;0.57;;;;;;;;;;4933766;29;20427;-76
2021/05/17 09:25:40;;;;;;;1.17;0.80;;;;;;;;;;4934061;29;20476;-76
2021/05/17 09:28:08;;;;;;;0.97;0.70;;;;;;;;;;4934074;29;20417;-75
2021/05/17 09:30:46;;;;;;;2.03;0.97;;;;;;;;;;4933833;29;20427;-75
2021/05/17 09:33:17;;;;;;;1.73;0.57;;;;;;;;;;4932857;29;20420;-76
2021/05/17 09:35:47;;;;;;;6.43;0.60;;;;;;;;;;4933869;29;20483;-78
2021/05/17 09:38:20;;;;;;;0.87;0.50;;;;;;;;;;4933852;29;20416;-76
2021/05/17 09:40:47;;;;;;;0.50;0.40;;;;;;;;;;4933979;29;20417;-77
2021/05/17 09:43:17;;;;;;;1.70;0.67;;;;;;;;;;4934305;29;20420;-76
2021/05/17 09:45:47;;;;;;;1.20;0.77;;;;;;;;;;4934099;29;20465;-75
2021/05/17 09:48:17;;;;;;;1.53;0.50;;;;;;;;;;4917059;29;20429;-76
2021/05/17 09:51:05;;;;;;;1.20;0.40;;;;;;;;;;4933859;29;20425;-76
2021/05/17 09:53:32;;;;;;;0.97;0.50;;;;;;;;;;4933584;29;20863;-76
2021/05/17 09:55:59;;;;;;;1.83;0.50;;;;;;;;;;4933291;29;20484;-77
2021/05/17 09:58:28;;;;;;;0.80;0.60;;;;;;;;;;4933524;29;20417;-75
2021/05/17 10:01:07;;;;;;;2.30;0.70;;;;;;;;;;4933562;29;20428;-75
2021/05/17 10:03:34;;;;;;;0.80;0.40;;;;;;;;;;4933946;29;20752;-76
2021/05/17 10:06:02;;;;;;;1.03;0.50;;;;;;;;;;4933487;29;20420;-76
2021/05/17 10:08:28;;;;;;;4.83;0.80;;;;;;;;;;4933082;29;20745;-77
2021/05/17 10:10:58;;;;;;;1.17;0.60;;;;;;;;;;4933457;29;20445;-77
2021/05/17 10:13:25;;;;;;;2.00;0.60;;;;;;;;;;4932994;29;20423;-77
2021/05/17 10:15:52;;;;;;;0.63;0.60;;;;;;;;;;4933397;29;20472;-74
2021/05/17 10:18:18;;;;;;;2.87;0.67;;;;;;;;;;4933342;29;20408;-75
2021/05/17 10:20:44;;;;;;;1.10;0.57;;;;;;;;;;4933899;29;20915;-75
2021/05/17 10:23:13;;;;;;;1.63;0.70;;;;;;;;;;4931695;29;20436;-75
2021/05/17 10:25:44;;;;;;;0.97;0.40;;;;;;;;;;4933004;29;20412;-76
2021/05/17 10:28:15;;;;;;;0.50;0.50;;;;;;;;;;4933864;29;20421;-76
2021/05/17 10:30:41;;;;;;;1.97;0.60;;;;;;;;;;4933258;29;20420;-76
2021/05/17 10:33:08;;;;;;;2.80;0.90;;;;;;;;;;4933078;29;20412;-76
2021/05/17 10:35:36;;;;;;;1.37;0.60;;;;;;;;;;4933589;29;20559;-76
2021/05/17 10:38:31;;;;;;;1.07;0.73;;;;;;;;;;4933870;29;20412;-77
2021/05/17 10:41:26;;;;;;;1.67;1.27;;;;;;;;;;4933557;29;20420;-77
2021/05/17 10:44:07;;;;;;;1.70;0.67;;;;;;;;;;4932041;29;20844;-78
2021/05/17 10:46:43;;;;;;;1.50;0.67;;;;;;;;;;4933314;29;20540;-77
2021/05/17 10:49:21;;;;;;;1.80;0.50;;;;;;;;;;4933754;29;20420;-76
2021/05/17 10:51:48;;;;;;;2.70;0.90;;;;;;;;;;4933788;29;20416;-76
2021/05/17 10:54:23;;;;;;;1.83;1.03;;;;;;;;;;4933111;29;20978;-78
2021/05/17 10:56:57;;;;;;;2.43;0.80;;;;;;;;;;4933343;29;20431;-77
2021/05/17 11:02:12;;;;;;;1.37;0.47;;;;;;;;;;4933394;29;20419;-75
2021/05/17 11:04:39;;;;;;;0.83;0.53;;;;;;;;;;4933191;29;20425;-76
2021/05/17 11:07:37;;;;;;;6.43;0.67;;;;;;;;;;4931994;29;20943;-75
2021/05/17 11:10:09;;;;;;;2.30;0.50;;;;;;;;;;4911343;29;20539;-77
2021/05/17 11:12:53;;;;;;;1.83;0.50;;;;;;;;;;4933360;29;20428;-77
2021/05/17 11:15:23;;;;;;;0.40;0.40;;;;;;;;;;4931736;29;20476;-77
2021/05/17 11:17:52;;;;;;;1.43;0.53;;;;;;;;;;4933420;29;20420;-76
2021/05/17 11:20:37;;;;;;;0.50;0.40;;;;;;;;;;4933415;29;20979;-75
2021/05/17 11:23:03;;;;;;;1.23;0.70;;;;;;;;;;4933494;29;20503;-76
2021/05/17 11:25:50;;;;;;;0.63;0.40;;;;;;;;;;4933444;29;20942;-76
2021/05/17 11:28:19;;;;;;;0.90;0.63;;;;;;;;;;4933086;29;20928;-77
2021/05/17 11:30:48;;;;;;;0.90;0.40;;;;;;;;;;4934507;29;20804;-75
2021/05/17 11:33:16;;;;;;;3.07;0.57;;;;;;;;;;4933475;29;20439;-74
2021/05/17 11:36:23;;;;;;;2.00;0.87;;;;;;;;;;4933930;28;20483;-76
2021/05/17 11:41:57;;;;;;;0.60;0.40;;;;;;;;;;4927642;29;20440;-76
2021/05/17 11:44:27;;;;;;;1.43;0.30;;;;;;;;;;4935125;29;20422;-77
2021/05/17 11:49:57;;;;;;;1.07;0.60;;;;;;;;;;4937845;29;20886;-76
2021/05/17 11:52:30;;;;;;;0.40;0.30;;;;;;;;;;4937797;29;20405;-77
2021/05/17 11:54:57;;;;;;;0.40;0.30;;;;;;;;;;4937330;29;21053;-77
2021/05/17 11:57:30;;;;;;;0.70;0.47;;;;;;;;;;4936726;29;20432;-76
2021/05/17 11:59:59;;;;;;;0.50;0.30;;;;;;;;;;4937645;29;20443;-76
2021/05/17 12:05:29;;;;;;;0.67;0.40;;;;;;;;;;4937079;29;20439;-75
2021/05/17 12:07:59;;;;;;;0.60;0.40;;;;;;;;;;4937027;29;20448;-77
2021/05/17 12:10:33;;;;;;;0.40;0.20;;;;;;;;;;4937442;29;20756;-77
2021/05/17 12:12:59;;;;;;;1.20;0.40;;;;;;;;;;4937527;29;20507;-75
2021/05/17 12:15:25;;;;;;;0.40;0.40;;;;;;;;;;4937119;29;20560;-75
2021/05/17 12:20:55;;;;;;;0.47;0.30;;;;;;;;;;4937237;29;20432;-75
2021/05/17 12:23:22;;;;;;;1.23;0.23;;;;;;;;;;4936746;29;20508;-76
2021/05/17 12:25:48;;;;;;;0.40;0.20;;;;;;;;;;4935737;29;20424;-75
2021/05/17 12:28:14;;;;;;;2.00;0.20;;;;;;;;;;4937058;29;20425;-75
2021/05/17 12:30:47;;;;;;;0.40;0.30;;;;;;;;;;4935730;29;20476;-77
2021/05/17 12:36:17;;;;;;;0.30;0.30;;;;;;;;;;4936947;29;20475;-77
2021/05/17 12:38:56;;;;;;;1.23;0.30;;;;;;;;;;4936049;28;20885;-76
2021/05/17 12:41:34;;;;;;;1.10;0.33;;;;;;;;;;4937015;29;20428;-77
2021/05/17 12:44:01;;;;;;;1.40;0.50;;;;;;;;;;4936910;29;20420;-76
2021/05/17 12:46:28;;;;;;;0.97;0.40;;;;;;;;;;4936936;29;20428;-77
2021/05/17 12:51:58;;;;;;;0.40;0.20;;;;;;;;;;4936684;29;20475;-76
2021/05/17 12:54:23;;;;;;;0.93;0.47;;;;;;;;;;4935947;29;20978;-76
2021/05/17 12:56:50;;;;;;;0.50;0.30;;;;;;;;;;4935316;29;20452;-76
2021/05/17 12:59:21;;;;;;;0.73;0.23;;;;;;;;;;4936244;29;20436;-77
2021/05/17 13:01:54;;;;;;;0.60;0.20;;;;;;;;;;4936750;29;20425;-75
2021/05/17 13:07:23;;;;;;;0.70;0.50;;;;;;;;;;4936349;29;20415;-75
2021/05/17 13:09:59;;;;;;;1.37;0.30;;;;;;;;;;4936029;29;20425;-76
2021/05/17 13:12:45;;;;;;;0.80;0.47;;;;;;;;;;4936458;29;20575;-75
2021/05/17 13:15:19;;;;;;;1.00;0.27;;;;;;;;;;4935686;29;20486;-74
2021/05/17 13:17:55;;;;;;;0.50;0.30;;;;;;;;;;4935483;29;20475;-74
2021/05/17 13:20:28;;;;;;;0.47;0.30;;;;;;;;;;4935730;29;20423;-76
2021/05/17 13:23:20;;;;;;;0.40;0.30;;;;;;;;;;4935596;29;20408;-75
2021/05/17 13:31:21;;;;;;;0.40;0.27;;;;;;;;;;4934979;29;20432;-75
2021/05/17 13:33:48;;;;;;;0.70;0.27;;;;;;;;;;4934939;29;20404;-76
2021/05/17 13:36:22;;;;;;;1.00;0.37;;;;;;;;;;4933490;29;20507;-77
2021/05/17 13:38:54;;;;;;;1.63;0.30;;;;;;;;;;4934598;29;20427;-75
2021/05/17 13:41:23;;;;;;;1.17;0.50;;;;;;;;;;4934946;29;20432;-77
2021/05/17 13:43:49;;;;;;;0.43;0.30;;;;;;;;;;4934794;29;20420;-75
2021/05/17 13:46:15;;;;;;;0.90;0.60;;;;;;;;;;4935009;29;20472;-76
2021/05/17 13:48:48;;;;;;;0.60;0.50;;;;;;;;;;4934593;29;20832;-74
2021/05/17 13:51:15;;;;;;;0.30;0.20;;;;;;;;;;4934511;29;20994;-75
2021/05/17 13:53:41;;;;;;;0.53;0.30;;;;;;;;;;4934001;29;20420;-76
2021/05/17 13:56:07;;;;;;;1.27;0.40;;;;;;;;;;4935031;29;20475;-77
2021/05/17 13:58:33;;;;;;;1.03;0.50;;;;;;;;;;4934830;29;20416;-77
2021/05/17 14:00:59;;;;;;;1.77;0.30;;;;;;;;;;4933315;29;20496;-78
2021/05/17 14:03:27;;;;;;;4.23;0.40;;;;;;;;;;4934679;29;20420;-78
2021/05/17 14:05:53;;;;;;;0.40;0.30;;;;;;;;;;4934894;29;20921;-78
2021/05/17 14:08:19;;;;;;;1.30;0.40;;;;;;;;;;4933184;29;20515;-78
2021/05/17 14:10:45;;;;;;;1.23;0.50;;;;;;;;;;4934021;29;20420;-78
2021/05/17 14:13:11;;;;;;;1.47;0.30;;;;;;;;;;4934632;29;20435;-77
2021/05/17 14:15:37;;;;;;;1.43;0.20;;;;;;;;;;4933094;29;20484;-78
2021/05/17 14:18:03;;;;;;;5.23;0.47;;;;;;;;;;4935472;29;20564;-78
2021/05/17 14:20:29;;;;;;;0.60;0.40;;;;;;;;;;4935582;29;20420;-77
2021/05/17 14:23:20;;;;;;;0.63;0.50;;;;;;;;;;4935184;29;20435;-77
2021/05/17 14:25:45;;;;;;;1.17;0.67;;;;;;;;;;4934972;29;20805;-77
2021/05/17 14:28:11;;;;;;;1.47;0.70;;;;;;;;;;4935385;29;20763;-77
2021/05/17 14:30:37;;;;;;;0.50;0.40;;;;;;;;;;4935238;29;20511;-77
2021/05/17 14:33:12;;;;;;;0.93;0.67;;;;;;;;;;4935072;29;20428;-77
2021/05/17 14:35:41;;;;;;;0.50;0.50;;;;;;;;;;4935462;29;20557;-78
2021/05/17 14:38:07;;;;;;;0.87;0.40;;;;;;;;;;4934827;29;20896;-78
2021/05/17 14:40:34;;;;;;;2.80;0.50;;;;;;;;;;4935096;29;20447;-77
2021/05/17 14:43:00;;;;;;;0.40;0.30;;;;;;;;;;4935401;29;20428;-77
2021/05/17 14:45:27;;;;;;;0.47;0.47;;;;;;;;;;4935979;29;20459;-78
2021/05/17 14:47:53;;;;;;;0.87;0.40;;;;;;;;;;4935582;29;20471;-79
2021/05/17 14:53:29;;;;;;;0.67;0.33;;;;;;;;;;4935289;29;20507;-81
2021/05/17 14:55:55;;;;;;;0.93;0.60;;;;;;;;;;4935298;29;20488;-76
2021/05/17 14:58:21;;;;;;;0.73;0.30;;;;;;;;;;4935038;29;20428;-76
2021/05/17 15:00:50;;;;;;;0.70;0.37;;;;;;;;;;4934393;29;20496;-77
2021/05/17 15:03:19;;;;;;;0.60;0.40;;;;;;;;;;4933157;29;20842;-78
2021/05/17 15:05:48;;;;;;;3.33;0.30;;;;;;;;;;4933664;29;20455;-76
2021/05/17 15:08:14;;;;;;;0.40;0.20;;;;;;;;;;4934412;29;20428;-82
2021/05/17 15:10:41;;;;;;;1.60;0.40;;;;;;;;;;4934732;29;20987;-80
2021/05/17 15:13:07;;;;;;;0.30;0.20;;;;;;;;;;4932980;28;20946;-80
2021/05/17 15:15:36;;;;;;;0.60;0.30;;;;;;;;;;4933753;29;20827;-78
2021/05/17 15:18:08;;;;;;;1.07;0.30;;;;;;;;;;4935349;29;20444;-79
2021/05/17 15:23:39;;;;;;;0.40;0.30;;;;;;;;;;4936962;29;20467;-79
2021/05/17 15:26:05;;;;;;;0.30;0.20;;;;;;;;;;4937412;29;20483;-78
2021/05/17 15:28:31;;;;;;;0.93;0.53;;;;;;;;;;4935682;29;20955;-81
2021/05/17 15:30:57;;;;;;;0.43;0.33;;;;;;;;;;4920461;29;20547;-80
2021/05/17 15:33:24;;;;;;;0.60;0.30;;;;;;;;;;4937595;29;20432;-79
2021/05/17 15:35:50;;;;;;;2.40;0.40;;;;;;;;;;4937449;29;20476;-79
2021/05/17 15:38:17;;;;;;;1.37;0.50;;;;;;;;;;4937778;29;20408;-81
2021/05/17 15:40:44;;;;;;;0.63;0.40;;;;;;;;;;4937303;29;20459;-82
2021/05/17 15:43:11;;;;;;;0.40;0.30;;;;;;;;;;4937201;29;20448;-81
2021/05/17 15:45:37;;;;;;;0.70;0.30;;;;;;;;;;4937751;29;20888;-80
2021/05/17 15:48:04;;;;;;;0.77;0.40;;;;;;;;;;4937676;29;20423;-81
2021/05/17 15:53:33;;;;;;;4.30;0.50;;;;;;;;;;4936931;29;20411;-81
2021/05/17 15:55:59;;;;;;;0.40;0.33;;;;;;;;;;4936876;29;20472;-84
2021/05/17 15:58:25;;;;;;;0.70;0.40;;;;;;;;;;4936903;29;20772;-84
2021/05/17 16:00:51;;;;;;;2.00;0.70;;;;;;;;;;4937429;29;20428;-90
2021/05/17 16:03:17;;;;;;;0.43;0.43;;;;;;;;;;4922426;29;20424;-86
2021/05/17 16:08:47;;;;;;;0.80;0.50;;;;;;;;;;4936622;29;20415;-88
2021/05/17 16:11:16;;;;;;;0.40;0.20;;;;;;;;;;4937151;29;20771;-82
2021/05/17 16:21:42;;;;;;;0.60;0.50;;;;;;;;;;4896497;29;20828;-82
2021/05/17 16:24:09;;;;;;;3.20;0.43;;;;;;;;;;4928192;29;20451;-81
2021/05/17 16:26:35;;;;;;;1.00;0.33;;;;;;;;;;4935428;29;20439;-81
2021/05/17 16:29:04;;;;;;;0.40;0.30;;;;;;;;;;4936057;28;20527;-78
2021/05/17 16:31:31;;;;;;;3.80;0.30;;;;;;;;;;4936446;29;20428;-78
2021/05/17 16:33:58;;;;;;;5.10;0.50;;;;;;;;;;4936247;29;20448;-78
2021/05/17 16:36:27;;;;;;;1.70;0.30;;;;;;;;;;4936413;29;20460;-77
2021/05/17 16:38:54;;;;;;;0.30;0.30;;;;;;;;;;4936563;29;20424;-80
2021/05/17 16:41:20;;;;;;;2.60;0.40;;;;;;;;;;4936721;29;20428;-80
2021/05/17 16:43:46;;;;;;;1.87;0.30;;;;;;;;;;4936645;29;20475;-78
2021/05/17 16:46:13;;;;;;;0.30;0.20;;;;;;;;;;4936362;29;20500;-79
2021/05/17 16:48:58;;;;;;;0.40;0.20;;;;;;;;;;4936404;29;20424;-77
2021/05/17 16:51:24;;;;;;;0.60;0.37;;;;;;;;;;4936755;29;20413;-79
2021/05/17 17:03:41;;;;;;;0.40;0.30;;;;;;;;;;5322114;23;20571;-80
2021/05/17 17:06:07;;;;;;;1.03;0.40;;;;;;;;;;4938526;28;20546;-78
2021/05/17 17:08:37;;;;;;;0.60;0.30;;;;;;;;;;4968106;28;20450;-84
2021/05/17 17:11:03;;;;;;;0.77;0.40;;;;;;;;;;4947798;28;20537;-80
2021/05/17 17:13:30;;;;;;;0.83;0.30;;;;;;;;;;4971937;28;20454;-82
2021/05/17 17:15:56;;;;;;;1.17;0.47;;;;;;;;;;4967901;28;20493;-83